Historyczne dane pomiarowe

Dodano dane terminowe – wersja testowa.

Dane z okresu 1951-2018

Wersja bazy: 1.29 [2019-01-10, lista zmian], aktualizacja planowana na 2019-02-07

Dane meteo z obszaru Polski uzyskane na podstawie danych udostępnionych przez Instytut Meteorologii i Gospodarki Wodnej – Państwowy Instytut Badawczy.

 

Wybierz Datę:    

       

TemperaturaWilgotnośćWiatrCiśnienieOpadyŚniegCzas trwania zjawisk
 Stacja t tx tn tng RH VA  wxwx mslp ppp RRR   cm mm wxwxwxwxwxwxwx
1986-12-13 0.2 1.6 -1.4 -4.8 84.0- 7.0 2.3---- 0.0------------
1986-12-14 -2.0 -0.9 -2.5 -3.7 89.3- 8.0 3.7---- 0.2------------
1986-12-15 0.6 1.5 -2.0 -3.2 93.8- 8.0 3.3---- 0.0------------
1986-12-16 0.6 1.6 -0.6 -0.3 91.8- 8.0 5.3---- 0.0------------
1986-12-17 2.2 3.5 0.0 -0.2 90.0- 8.0 6.0---- 0.0------------
1986-12-18 2.4 3.5 0.6 1.3 92.0- 7.7 3.7---- 2.3------------
1986-12-19 2.0 3.5 0.6 2.2 94.8- 8.0 4.3---- 3.6------------
1986-12-20 0.5 2.7 -1.4 -1.1 92.8- 8.0 7.7---- 0.7------------
1986-12-21 -4.4 -0.7 -9.2 -6.7 89.0- 4.0 3.7---- 0.1-- 2---------
1986-12-22 -2.4 -0.8 -9.2 -6.5 92.3- 8.0 3.7---- 2.9-- 5---------
1986-12-23 -2.2 0.6 -6.5 -3.7 95.3- 8.0 4.3---- 0.9-- 24---------
1986-12-24 -8.1 -5.2-12.2 -5.5 89.5- 5.0 0.7---- 0.3-- 30---------
1986-12-25 -8.5 -5.3-11.5 -5.9 90.5- 5.3 3.7---- 0.0-- 30---------
1986-12-26 -7.1 -6.0 -9.9 -5.2 92.8- 5.3 7.3---- 0.3-- 31---------
1986-12-27 -5.3 -0.8 -9.7 -5.2 82.5- 8.0 4.3---- 0.4-- 30---------
1986-12-28 -1.3 -0.3 -5.0 -7.1 91.0- 8.0 3.7---- 2.1-- 29---------
1986-12-29 -0.8 3.6 -7.4- 87.3- 6.7 8.3---- 0.0-- 27---------
1986-12-30 -0.6 3.4 -2.0 -3.2 85.5- 7.7 6.0---- 1.3-- 25---------
1986-12-31 -4.7 0.8 -8.7 -6.0 91.5- 8.0 4.3---- 1.0-- 22---------
1987-01-01 -4.5 -1.7-10.5-10.2 94.3- 5.3 3.7---- 0.9-- 24---------
1987-01-02-19.3 -9.9-21.7-26.7 83.0- 5.3 2.0---- 0.0-- 29---------
1987-01-03 -9.2 -2.6-22.9-23.4 83.8- 8.0 6.0---- 2.8-- 29---------
1987-01-04 -9.7 -4.5-19.4-11.5 93.8- 5.3 2.3---- 1.0-- 34---------
1987-01-05 -7.8 -2.5-18.5-16.6 90.5- 8.0 5.7---- 0.3-- 42---------
1987-01-06 -8.7 -0.1-17.3-16.3 87.5- 8.0 4.7---- 0.0-- 52---------
1987-01-07-24.5-17.2-31.4-30.7 65.8- 1.7 3.0---- 0.0-- 53---------
1987-01-08-17.5 -9.4-33.7-29.4 78.0- 5.7 5.3---- 0.1-- 54---------
1987-01-09-13.6 -8.7-21.9-25.1 86.8- 2.7 4.3---- 0.2-- 62---------
1987-01-10-22.2-19.3-26.4-31.3 86.0- 5.3 0.3---- 0.0-- 63---------
1987-01-11-25.9-23.0-28.2-32.3 88.3- 2.7 3.0---- 0.1-- 64---------
376.9 ms

 

Źródłem pochodzenia danych jest Instytut Meteorologii i Gospodarki Wodnej – Państwowy Instytut Badawczy. Dane Instytutu Meteorologii i Gospodarki Wodnej – Państwowego Instytutu Badawczego zostały przetworzone.

Dane źródłowe można odnaleźć na stronie https://dane.imgw.pl